createdAt,value
2017-07-24T00:00:53.484Z,21.47
2017-07-24T00:01:55.364Z,21.34
2017-07-24T00:02:57.236Z,21.38
2017-07-24T00:03:59.126Z,21.38
2017-07-24T00:05:00.930Z,21.27
2017-07-24T00:06:02.757Z,21.29
2017-07-24T00:07:04.644Z,21.19
2017-07-24T00:08:06.513Z,21.16
2017-07-24T00:09:08.399Z,21.01
2017-07-24T00:10:22.540Z,20.92
2017-07-24T00:11:24.410Z,20.85
2017-07-24T00:12:26.301Z,20.72
2017-07-24T00:13:28.167Z,20.57
2017-07-24T00:14:29.991Z,20.54
2017-07-24T00:15:31.802Z,20.61
2017-07-24T00:16:33.693Z,20.55
2017-07-24T00:17:35.579Z,20.59
2017-07-24T00:18:37.471Z,20.58
2017-07-24T00:19:51.616Z,20.72
2017-07-24T00:20:53.504Z,20.82
2017-07-24T00:21:55.370Z,20.79
2017-07-24T00:22:57.255Z,20.91
2017-07-24T00:23:59.061Z,20.98
2017-07-24T00:25:00.888Z,21.12
2017-07-24T00:26:02.750Z,21.27
2017-07-24T00:27:04.616Z,21.27
2017-07-24T00:28:06.485Z,21.27
2017-07-24T00:29:20.654Z,21.21
2017-07-24T00:30:22.537Z,21.22
2017-07-24T00:31:24.407Z,21.12
2017-07-24T00:32:26.294Z,21.01
2017-07-24T00:33:28.108Z,20.94
2017-07-24T00:34:29.925Z,20.94
2017-07-24T00:35:31.788Z,20.80
2017-07-24T00:36:33.661Z,20.73
2017-07-24T00:37:35.552Z,20.69
2017-07-24T00:38:49.767Z,20.59
2017-07-24T00:39:51.650Z,20.54
2017-07-24T00:40:53.521Z,20.51
2017-07-24T00:41:55.385Z,20.33
2017-07-24T00:42:57.190Z,20.23
2017-07-24T00:43:58.995Z,20.29
2017-07-24T00:45:00.875Z,20.31
2017-07-24T00:46:02.741Z,20.32
2017-07-24T00:47:04.611Z,20.41
2017-07-24T00:48:18.825Z,20.57
2017-07-24T00:49:20.684Z,20.54
2017-07-24T00:50:22.546Z,20.52
2017-07-24T00:51:24.413Z,20.33
2017-07-24T00:52:26.219Z,20.20
2017-07-24T00:53:28.050Z,20.17
2017-07-24T00:54:29.941Z,20.08
2017-07-24T00:55:31.802Z,20.01
2017-07-24T00:56:33.693Z,19.98
2017-07-24T00:57:47.903Z,20.02
2017-07-24T00:58:49.765Z,19.96
2017-07-24T00:59:51.634Z,20.03
2017-07-24T01:00:53.499Z,19.98
2017-07-24T01:01:55.305Z,19.96
2017-07-24T01:02:57.138Z,20.01
2017-07-24T01:03:59.034Z,19.99
2017-07-24T01:05:00.920Z,20.01
2017-07-24T01:06:02.808Z,20.11
2017-07-24T01:07:16.953Z,20.20
2017-07-24T01:08:18.845Z,20.21
2017-07-24T01:09:20.733Z,20.16
2017-07-24T01:10:22.620Z,20.11
2017-07-24T01:11:24.428Z,20.08
2017-07-24T01:12:26.236Z,20.10
2017-07-24T01:13:28.119Z,20.10
2017-07-24T01:14:29.989Z,20.08
2017-07-24T01:15:31.880Z,19.98
2017-07-24T01:16:46.041Z,19.92
2017-07-24T01:17:47.913Z,19.99
2017-07-24T01:18:49.780Z,19.92
2017-07-24T01:19:51.668Z,19.91
2017-07-24T01:20:53.497Z,19.94
2017-07-24T01:21:55.326Z,19.76
2017-07-24T01:22:57.191Z,19.83
2017-07-24T01:23:59.057Z,19.80
2017-07-24T01:25:00.934Z,19.86
2017-07-24T01:26:15.096Z,19.81
2017-07-24T01:27:16.962Z,19.81
2017-07-24T01:28:18.829Z,19.77
2017-07-24T01:29:20.692Z,19.76
2017-07-24T01:30:22.502Z,19.62
2017-07-24T01:31:24.341Z,19.63
2017-07-24T01:32:26.227Z,19.59
2017-07-24T01:33:28.088Z,19.65
2017-07-24T01:34:29.957Z,19.59
2017-07-24T01:35:44.099Z,19.65
2017-07-24T01:36:45.985Z,19.62
2017-07-24T01:37:47.884Z,19.74
2017-07-24T01:38:49.767Z,19.81
2017-07-24T01:39:51.571Z,19.78
2017-07-24T01:40:53.378Z,19.81
2017-07-24T01:41:55.268Z,19.74
2017-07-24T01:42:57.155Z,19.80
2017-07-24T01:44:05.295Z,19.88
2017-07-24T01:45:19.438Z,19.96
2017-07-24T01:46:21.307Z,19.98
2017-07-24T01:47:23.177Z,19.95
2017-07-24T01:48:25.066Z,19.99
2017-07-24T01:49:26.879Z,19.96
2017-07-24T01:50:28.711Z,19.99
2017-07-24T01:51:30.578Z,20.01
2017-07-24T01:52:32.463Z,20.05
2017-07-24T01:53:34.329Z,20.11
2017-07-24T01:54:48.478Z,20.23
2017-07-24T01:55:50.368Z,20.28
2017-07-24T01:56:52.258Z,20.28
2017-07-24T01:57:54.131Z,20.20
2017-07-24T01:58:55.962Z,20.28
2017-07-24T01:59:57.766Z,20.20
2017-07-24T02:00:59.640Z,20.17
2017-07-24T02:02:01.530Z,20.20
2017-07-24T02:03:03.400Z,20.16
2017-07-24T02:04:17.568Z,20.21
2017-07-24T02:05:19.434Z,20.21
2017-07-24T02:06:21.307Z,20.21
2017-07-24T02:07:23.175Z,20.23
2017-07-24T02:08:25.001Z,20.21
2017-07-24T02:09:26.815Z,20.24
2017-07-24T02:10:28.707Z,20.28
2017-07-24T02:11:30.573Z,20.17
2017-07-24T02:12:32.440Z,20.31
2017-07-24T02:13:46.609Z,20.38
2017-07-24T02:14:48.495Z,20.31
2017-07-24T02:15:50.364Z,20.47
2017-07-24T02:16:52.232Z,20.38
2017-07-24T02:17:54.043Z,20.48
2017-07-24T02:18:55.851Z,20.39
2017-07-24T02:19:57.717Z,20.42
2017-07-24T02:20:59.589Z,20.43
2017-07-24T02:22:01.450Z,20.47
2017-07-24T02:23:15.597Z,20.39
2017-07-24T02:24:17.490Z,20.39
2017-07-24T02:25:19.379Z,20.39
2017-07-24T02:26:21.265Z,20.36
2017-07-24T02:27:23.082Z,20.47
2017-07-24T02:28:24.908Z,20.38
2017-07-24T02:29:26.777Z,20.29
2017-07-24T02:30:28.645Z,20.33
2017-07-24T02:31:30.533Z,20.31
2017-07-24T02:32:44.680Z,20.38
2017-07-24T02:33:46.599Z,20.33
2017-07-24T02:34:48.490Z,20.20
2017-07-24T02:35:50.381Z,20.20
2017-07-24T02:36:52.213Z,20.10
2017-07-24T02:37:54.046Z,20.11
2017-07-24T02:38:55.934Z,20.21
2017-07-24T02:39:57.804Z,20.24
2017-07-24T02:40:59.667Z,20.17
2017-07-24T02:42:13.866Z,20.14
2017-07-24T02:43:15.733Z,20.02
2017-07-24T02:44:17.623Z,20.01
2017-07-24T02:45:19.524Z,19.95
2017-07-24T02:46:21.361Z,19.96
2017-07-24T02:47:23.188Z,19.87
2017-07-24T02:48:25.081Z,19.92
2017-07-24T02:49:26.926Z,19.94
2017-07-24T02:50:28.791Z,19.94
2017-07-24T02:51:42.937Z,19.87
2017-07-24T02:52:44.824Z,19.81
2017-07-24T02:53:46.698Z,19.83
2017-07-24T02:54:48.569Z,19.81
2017-07-24T02:55:50.404Z,19.78
2017-07-24T02:56:52.240Z,19.87
2017-07-24T02:57:54.129Z,19.94
2017-07-24T02:58:56.003Z,19.96
2017-07-24T02:59:57.895Z,20.08
2017-07-24T03:01:12.061Z,20.20
2017-07-24T03:02:13.932Z,20.26
2017-07-24T03:03:15.831Z,20.26
2017-07-24T03:04:17.716Z,20.36
2017-07-24T03:05:19.542Z,20.52
2017-07-24T03:06:21.362Z,20.57
2017-07-24T03:07:23.231Z,20.55
2017-07-24T03:08:25.126Z,20.54
2017-07-24T03:09:26.994Z,20.59
2017-07-24T03:10:41.165Z,20.54
2017-07-24T03:11:43.055Z,20.58
2017-07-24T03:12:44.921Z,20.72
2017-07-24T03:13:46.791Z,20.72
2017-07-24T03:14:48.607Z,20.77
2017-07-24T03:15:50.438Z,20.80
2017-07-24T03:16:52.315Z,20.84
2017-07-24T03:17:54.209Z,20.85
2017-07-24T03:18:56.108Z,20.82
2017-07-24T03:20:10.274Z,20.88
2017-07-24T03:21:12.143Z,20.82
2017-07-24T03:22:14.010Z,20.84
2017-07-24T03:23:15.879Z,20.72
2017-07-24T03:24:17.715Z,20.84
2017-07-24T03:25:19.547Z,20.77
2017-07-24T03:26:21.424Z,20.76
2017-07-24T03:27:23.300Z,20.72
2017-07-24T03:28:25.185Z,20.82
2017-07-24T03:29:39.336Z,20.82
2017-07-24T03:30:41.205Z,20.77
2017-07-24T03:31:43.078Z,20.79
2017-07-24T03:32:44.971Z,20.77
2017-07-24T03:33:46.805Z,20.85
2017-07-24T03:34:48.618Z,20.82
2017-07-24T03:35:50.509Z,20.91
2017-07-24T03:36:52.382Z,20.88
2017-07-24T03:37:54.260Z,20.94
2017-07-24T03:39:08.437Z,20.80
2017-07-24T03:40:10.326Z,20.77
2017-07-24T03:41:12.197Z,20.79
2017-07-24T03:42:14.073Z,20.77
2017-07-24T03:43:15.882Z,20.70
2017-07-24T03:44:17.698Z,20.74
2017-07-24T03:45:19.591Z,20.67
2017-07-24T03:46:21.465Z,20.69
2017-07-24T03:47:23.329Z,20.70
2017-07-24T03:48:37.477Z,20.70
2017-07-24T03:49:39.345Z,20.69
2017-07-24T03:50:41.216Z,20.70
2017-07-24T03:51:43.089Z,20.55
2017-07-24T03:52:44.928Z,20.74
2017-07-24T03:53:46.761Z,20.74
2017-07-24T03:54:48.636Z,20.74
2017-07-24T03:55:50.512Z,20.73
2017-07-24T03:56:52.401Z,20.66
2017-07-24T03:58:06.555Z,20.80
2017-07-24T03:59:08.448Z,20.87
2017-07-24T04:00:10.341Z,20.88
2017-07-24T04:01:12.214Z,20.98
2017-07-24T04:02:14.030Z,20.99
2017-07-24T04:03:15.868Z,21.14
2017-07-24T04:04:17.763Z,21.13
2017-07-24T04:05:19.659Z,21.14
2017-07-24T04:06:21.531Z,21.21
2017-07-24T04:07:35.706Z,21.28
2017-07-24T04:08:37.600Z,21.28
2017-07-24T04:09:39.473Z,21.35
2017-07-24T04:10:41.352Z,21.40
2017-07-24T04:11:43.189Z,21.49
2017-07-24T04:12:45.027Z,21.49
2017-07-24T04:13:46.927Z,21.49
2017-07-24T04:14:48.779Z,21.53
2017-07-24T04:15:50.592Z,21.54
2017-07-24T04:17:04.735Z,21.58
2017-07-24T04:18:06.609Z,21.67
2017-07-24T04:19:08.509Z,21.65
2017-07-24T04:20:10.413Z,21.74
2017-07-24T04:21:12.219Z,21.77
2017-07-24T04:22:14.026Z,21.80
2017-07-24T04:23:15.898Z,21.77
2017-07-24T04:24:17.773Z,21.90
2017-07-24T04:25:19.665Z,22.10
2017-07-24T04:26:33.821Z,22.35
2017-07-24T04:27:35.694Z,22.65
2017-07-24T04:28:37.589Z,22.91
2017-07-24T04:29:39.468Z,23.28
2017-07-24T04:30:41.307Z,23.48
2017-07-24T04:31:43.126Z,23.50
2017-07-24T04:32:44.991Z,23.66
2017-07-24T04:33:46.864Z,23.78
2017-07-24T04:34:48.738Z,23.83
2017-07-24T04:36:02.923Z,24.13
2017-07-24T04:37:04.812Z,24.15
2017-07-24T04:38:06.685Z,24.42
2017-07-24T04:39:08.561Z,24.58
2017-07-24T04:40:10.386Z,24.90
2017-07-24T04:41:12.216Z,25.17
2017-07-24T04:42:14.092Z,25.40
2017-07-24T04:43:15.965Z,25.47
2017-07-24T04:44:17.839Z,25.60
2017-07-24T04:45:32.017Z,25.76
2017-07-24T04:46:33.888Z,25.90
2017-07-24T04:47:35.761Z,26.02
2017-07-24T04:48:37.639Z,26.26
2017-07-24T04:49:39.485Z,26.45
2017-07-24T04:50:41.327Z,26.63
2017-07-24T04:51:43.229Z,26.70
2017-07-24T04:52:45.132Z,26.81
2017-07-24T04:53:47.021Z,26.88
2017-07-24T04:55:01.178Z,26.97
2017-07-24T04:56:03.050Z,26.94
2017-07-24T04:57:04.931Z,27.09
2017-07-24T04:58:06.833Z,27.44
2017-07-24T04:59:08.667Z,27.79
2017-07-24T05:00:10.487Z,28.11
2017-07-24T05:01:12.370Z,28.11
2017-07-24T05:02:14.273Z,28.07
2017-07-24T05:03:16.169Z,28.02
2017-07-24T05:04:30.325Z,27.70
2017-07-24T05:05:32.233Z,27.47
2017-07-24T05:06:34.106Z,27.27
2017-07-24T05:07:36.013Z,27.14
2017-07-24T05:08:37.826Z,27.13
2017-07-24T05:09:39.651Z,27.17
2017-07-24T05:10:41.545Z,27.27
2017-07-24T05:11:43.421Z,27.17
2017-07-24T05:12:45.302Z,27.19
2017-07-24T05:13:59.455Z,27.06
2017-07-24T05:15:01.329Z,27.04
2017-07-24T05:16:03.231Z,26.95
2017-07-24T05:17:05.133Z,26.91
2017-07-24T05:18:06.978Z,26.82
2017-07-24T05:19:08.817Z,26.70
2017-07-24T05:20:10.701Z,26.73
2017-07-24T05:21:12.603Z,26.70
2017-07-24T05:22:14.498Z,26.76
2017-07-24T05:23:28.646Z,26.72
2017-07-24T05:24:30.559Z,26.73
2017-07-24T05:25:32.458Z,26.72
2017-07-24T05:26:34.361Z,26.62
2017-07-24T05:27:36.204Z,26.52
2017-07-24T05:28:38.047Z,26.48
2017-07-24T05:29:39.912Z,26.29
2017-07-24T05:30:41.752Z,26.28
2017-07-24T05:31:43.593Z,26.28
2017-07-24T05:32:57.810Z,26.15
2017-07-24T05:33:59.688Z,25.90
2017-07-24T05:35:01.591Z,25.73
2017-07-24T05:36:03.467Z,25.73
2017-07-24T05:37:05.279Z,25.67
2017-07-24T05:38:07.097Z,25.57
2017-07-24T05:39:08.995Z,25.45
2017-07-24T05:40:10.870Z,25.42
2017-07-24T05:41:12.749Z,25.38
2017-07-24T05:42:26.932Z,25.40
2017-07-24T05:43:28.825Z,25.33
2017-07-24T05:44:30.721Z,25.21
2017-07-24T05:45:32.605Z,25.14
2017-07-24T05:46:34.446Z,25.10
2017-07-24T05:47:36.286Z,25.14
2017-07-24T05:48:38.160Z,25.17
2017-07-24T05:49:40.045Z,25.05
2017-07-24T05:50:41.941Z,25.08
2017-07-24T05:51:56.114Z,25.06
2017-07-24T05:52:57.987Z,25.14
2017-07-24T05:53:59.865Z,25.03
2017-07-24T05:55:01.743Z,25.10
2017-07-24T05:56:03.585Z,25.20
2017-07-24T05:57:05.430Z,25.14
2017-07-24T05:58:07.332Z,25.28
2017-07-24T05:59:09.233Z,25.24
2017-07-24T06:00:11.107Z,25.35
2017-07-24T06:01:25.259Z,25.28
2017-07-24T06:02:27.157Z,25.33
2017-07-24T06:03:29.059Z,25.23
2017-07-24T06:04:30.930Z,25.25
2017-07-24T06:05:32.775Z,25.30
2017-07-24T06:06:34.614Z,25.39
2017-07-24T06:07:36.511Z,25.33
2017-07-24T06:08:38.393Z,25.25
2017-07-24T06:09:40.292Z,25.28
2017-07-24T06:10:54.467Z,25.38
2017-07-24T06:11:56.343Z,25.36
2017-07-24T06:12:58.240Z,25.38
2017-07-24T06:14:00.116Z,25.25
2017-07-24T06:15:01.932Z,25.28
2017-07-24T06:16:03.750Z,25.33
2017-07-24T06:17:05.652Z,25.35
2017-07-24T06:18:07.553Z,25.40
2017-07-24T06:19:09.450Z,25.33
2017-07-24T06:20:23.660Z,25.43
2017-07-24T06:21:25.559Z,25.46
2017-07-24T06:22:27.432Z,25.54
2017-07-24T06:23:29.329Z,25.60
2017-07-24T06:24:31.144Z,25.58
2017-07-24T06:25:32.963Z,25.55
2017-07-24T06:26:34.842Z,25.52
2017-07-24T06:27:36.738Z,25.54
2017-07-24T06:28:38.575Z,25.51
2017-07-24T06:29:52.731Z,25.50
2017-07-24T06:30:54.629Z,25.67
2017-07-24T06:31:56.526Z,25.57
2017-07-24T06:32:58.412Z,25.58
2017-07-24T06:34:00.251Z,25.52
2017-07-24T06:35:02.091Z,25.55
2017-07-24T06:36:03.973Z,25.50
2017-07-24T06:37:05.871Z,25.54
2017-07-24T06:38:07.769Z,25.55
2017-07-24T06:39:21.920Z,25.60
2017-07-24T06:40:23.799Z,25.70
2017-07-24T06:41:25.704Z,25.69
2017-07-24T06:42:27.603Z,25.69
2017-07-24T06:43:29.418Z,25.75
2017-07-24T06:44:31.238Z,25.90
2017-07-24T06:45:33.151Z,25.90
2017-07-24T06:46:35.015Z,25.92
2017-07-24T06:47:36.909Z,26.06
2017-07-24T06:48:51.092Z,25.91
2017-07-24T06:49:52.990Z,25.95
2017-07-24T06:50:54.895Z,26.09
2017-07-24T06:51:56.791Z,26.26
2017-07-24T06:52:58.616Z,26.44
2017-07-24T06:54:00.452Z,26.58
2017-07-24T06:55:02.334Z,26.65
2017-07-24T06:56:04.211Z,26.73
2017-07-24T06:57:06.112Z,26.84
2017-07-24T06:58:20.293Z,26.85
2017-07-24T06:59:22.191Z,26.85
2017-07-24T07:00:24.088Z,26.89
2017-07-24T07:01:25.974Z,26.82
2017-07-24T07:02:27.789Z,26.63
2017-07-24T07:03:29.660Z,26.30
2017-07-24T07:04:31.540Z,26.23
2017-07-24T07:05:33.410Z,26.25
2017-07-24T07:06:35.308Z,26.30
2017-07-24T07:07:49.464Z,26.47
2017-07-24T07:08:51.335Z,26.44
2017-07-24T07:09:53.214Z,26.51
2017-07-24T07:10:55.095Z,26.47
2017-07-24T07:11:56.934Z,26.62
2017-07-24T07:12:58.752Z,26.77
2017-07-24T07:14:00.719Z,26.84
2017-07-24T07:15:02.616Z,26.88
2017-07-24T07:16:04.495Z,26.87
2017-07-24T07:17:19.067Z,26.65
2017-07-24T07:18:20.914Z,26.45
2017-07-24T07:19:22.788Z,26.29
2017-07-24T07:20:24.669Z,26.13
2017-07-24T07:21:26.486Z,26.02
2017-07-24T07:22:28.308Z,25.91
2017-07-24T07:23:30.209Z,25.97
2017-07-24T07:24:32.050Z,26.06
2017-07-24T07:25:33.889Z,26.15
2017-07-24T07:26:48.094Z,26.47
2017-07-24T07:27:49.966Z,26.52
2017-07-24T07:28:51.873Z,26.48
2017-07-24T07:29:53.764Z,26.32
2017-07-24T07:30:55.589Z,26.13
2017-07-24T07:31:57.434Z,26.20
2017-07-24T07:32:59.314Z,26.30
2017-07-24T07:34:01.213Z,26.29
2017-07-24T07:35:03.089Z,26.12
2017-07-24T07:36:17.247Z,25.97
2017-07-24T07:37:19.149Z,25.82
2017-07-24T07:38:21.051Z,25.95
2017-07-24T07:39:22.957Z,25.85
2017-07-24T07:40:24.804Z,25.75
2017-07-24T07:41:26.648Z,25.75
2017-07-24T07:42:28.514Z,25.72
2017-07-24T07:43:30.430Z,25.83
2017-07-24T07:44:32.244Z,25.69
2017-07-24T07:45:46.497Z,25.75
2017-07-24T07:46:48.360Z,25.72
2017-07-24T07:47:50.262Z,25.85
2017-07-24T07:48:52.166Z,25.94
2017-07-24T07:49:54.011Z,26.02
2017-07-24T07:50:55.854Z,25.99
2017-07-24T07:51:57.760Z,25.97
2017-07-24T07:52:59.661Z,26.07
2017-07-24T07:54:01.540Z,26.13
2017-07-24T07:55:15.728Z,26.12
2017-07-24T07:56:17.623Z,26.05
2017-07-24T07:57:19.525Z,25.95
2017-07-24T07:58:21.408Z,25.95
2017-07-24T07:59:23.250Z,25.72
2017-07-24T08:00:25.120Z,25.73
2017-07-24T08:01:26.975Z,25.97
2017-07-24T08:02:28.854Z,25.91
2017-07-24T08:03:30.728Z,25.94
2017-07-24T08:04:44.886Z,25.83
2017-07-24T08:05:46.785Z,25.87
2017-07-24T08:06:48.648Z,25.80
2017-07-24T08:07:50.571Z,25.76
2017-07-24T08:08:52.420Z,25.91
2017-07-24T08:09:54.244Z,26.02
2017-07-24T08:10:56.113Z,26.10
2017-07-24T08:11:57.991Z,26.15
2017-07-24T08:12:59.953Z,26.29
2017-07-24T08:14:14.137Z,26.47
2017-07-24T08:15:16.010Z,26.60
2017-07-24T08:16:17.890Z,26.67
2017-07-24T08:17:19.791Z,26.81
2017-07-24T08:18:21.611Z,26.77
2017-07-24T08:19:23.548Z,26.70
2017-07-24T08:20:25.481Z,26.76
2017-07-24T08:21:27.389Z,26.67
2017-07-24T08:22:29.258Z,26.85
2017-07-24T08:23:43.417Z,27.14
2017-07-24T08:24:45.338Z,27.28
2017-07-24T08:25:47.236Z,27.50
2017-07-24T08:26:49.112Z,27.74
2017-07-24T08:27:50.950Z,27.99
2017-07-24T08:28:52.782Z,28.00
2017-07-24T08:29:54.682Z,27.96
2017-07-24T08:30:56.560Z,27.66
2017-07-24T08:31:58.459Z,27.43
2017-07-24T08:33:12.619Z,27.27
2017-07-24T08:34:14.511Z,27.49
2017-07-24T08:35:16.399Z,27.74
2017-07-24T08:36:18.277Z,27.99
2017-07-24T08:37:20.126Z,28.33
2017-07-24T08:38:21.972Z,28.44
2017-07-24T08:39:23.831Z,28.40
2017-07-24T08:40:25.658Z,28.34
2017-07-24T08:41:27.509Z,28.27
2017-07-24T08:42:41.668Z,28.33
2017-07-24T08:43:43.544Z,28.18
2017-07-24T08:44:45.421Z,28.17
2017-07-24T08:45:47.302Z,28.18
2017-07-24T08:46:49.150Z,28.33
2017-07-24T08:47:51.005Z,28.55
2017-07-24T08:48:52.884Z,28.54
2017-07-24T08:49:54.769Z,28.44
2017-07-24T08:50:56.678Z,28.31
2017-07-24T08:52:10.841Z,28.33
2017-07-24T08:53:12.663Z,28.52
2017-07-24T08:54:14.528Z,28.70
2017-07-24T08:55:16.433Z,28.89
2017-07-24T08:56:18.315Z,28.98
2017-07-24T08:57:20.190Z,28.74
2017-07-24T08:58:22.009Z,28.70
2017-07-24T08:59:23.853Z,28.56
2017-07-24T09:00:25.732Z,28.40
2017-07-24T09:01:39.958Z,28.11
2017-07-24T09:02:41.858Z,28.02
2017-07-24T09:03:43.763Z,28.00
2017-07-24T09:04:45.669Z,27.85
2017-07-24T09:05:47.491Z,27.67
2017-07-24T09:06:49.334Z,27.70
2017-07-24T09:07:51.239Z,27.75
2017-07-24T09:08:53.146Z,27.92
2017-07-24T09:09:55.047Z,27.96
2017-07-24T09:11:09.228Z,28.00
2017-07-24T09:12:11.106Z,27.99
2017-07-24T09:13:13.014Z,28.03
2017-07-24T09:14:14.893Z,27.93
2017-07-24T09:15:16.713Z,27.99
2017-07-24T09:16:18.564Z,27.97
2017-07-24T09:17:20.464Z,28.11
2017-07-24T09:18:22.359Z,28.31
2017-07-24T09:19:24.242Z,28.59
2017-07-24T09:20:38.414Z,28.85
2017-07-24T09:21:40.311Z,28.73
2017-07-24T09:22:42.191Z,28.74
2017-07-24T09:23:44.100Z,28.70
2017-07-24T09:24:45.947Z,28.70
2017-07-24T09:25:47.790Z,28.70
2017-07-24T09:26:49.665Z,28.58
2017-07-24T09:27:51.553Z,28.39
2017-07-24T09:28:53.456Z,28.40
2017-07-24T09:30:07.644Z,28.37
2017-07-24T09:31:09.547Z,28.34
2017-07-24T09:32:11.450Z,28.37
2017-07-24T09:33:13.355Z,28.27
2017-07-24T09:34:15.171Z,28.40
2017-07-24T09:35:16.998Z,28.62
2017-07-24T09:36:18.880Z,28.93
2017-07-24T09:37:20.784Z,29.21
2017-07-24T09:38:22.696Z,29.51
2017-07-24T09:39:36.849Z,29.73
2017-07-24T09:40:38.730Z,29.79
2017-07-24T09:41:40.607Z,29.87
2017-07-24T09:42:42.485Z,29.98
2017-07-24T09:43:44.332Z,30.10
2017-07-24T09:44:46.149Z,30.31
2017-07-24T09:45:48.036Z,30.38
2017-07-24T09:46:49.943Z,30.42
2017-07-24T09:47:51.845Z,30.55
2017-07-24T09:49:06.007Z,30.55
2017-07-24T09:50:07.904Z,30.55
2017-07-24T09:51:09.784Z,30.67
2017-07-24T09:52:11.666Z,30.67
2017-07-24T09:53:13.516Z,30.57
2017-07-24T09:54:15.358Z,30.55
2017-07-24T09:55:17.242Z,30.54
2017-07-24T09:56:19.118Z,30.42
2017-07-24T09:57:21.019Z,30.31
2017-07-24T09:58:35.207Z,30.02
2017-07-24T09:59:37.105Z,29.61
2017-07-24T10:00:39.015Z,29.27
2017-07-24T10:01:40.889Z,29.21
2017-07-24T10:02:42.708Z,29.11
2017-07-24T10:03:44.532Z,29.08
2017-07-24T10:04:46.424Z,28.98
2017-07-24T10:05:48.307Z,28.90
2017-07-24T10:06:50.188Z,28.80
2017-07-24T10:08:04.349Z,28.96
2017-07-24T10:09:06.253Z,29.21
2017-07-24T10:10:08.152Z,29.28
2017-07-24T10:11:10.031Z,29.53
2017-07-24T10:12:11.857Z,29.61
2017-07-24T10:13:13.672Z,29.73
2017-07-24T10:14:15.553Z,29.73
2017-07-24T10:15:17.436Z,29.74
2017-07-24T10:16:19.320Z,29.71
2017-07-24T10:17:33.500Z,29.80
2017-07-24T10:18:35.384Z,29.90
2017-07-24T10:19:37.287Z,30.05
2017-07-24T10:20:39.192Z,30.07
2017-07-24T10:21:41.008Z,30.15
2017-07-24T10:22:42.833Z,30.24
2017-07-24T10:23:44.717Z,30.32
2017-07-24T10:24:46.617Z,30.38
2017-07-24T10:25:48.525Z,30.42
2017-07-24T10:27:02.686Z,30.35
2017-07-24T10:28:04.567Z,30.38
2017-07-24T10:29:06.442Z,30.45
2017-07-24T10:30:08.324Z,30.43
2017-07-24T10:31:10.164Z,30.61
2017-07-24T10:32:11.988Z,30.57
2017-07-24T10:33:13.875Z,30.61
2017-07-24T10:34:15.773Z,30.70
2017-07-24T10:35:17.653Z,30.70
2017-07-24T10:36:31.811Z,30.70
2017-07-24T10:37:33.690Z,30.67
2017-07-24T10:38:35.575Z,30.73
2017-07-24T10:39:37.452Z,30.80
2017-07-24T10:40:39.272Z,30.82
2017-07-24T10:41:41.102Z,30.83
2017-07-24T10:42:43.001Z,30.91
2017-07-24T10:43:44.904Z,30.92
2017-07-24T10:44:46.789Z,30.92
2017-07-24T10:46:00.973Z,30.88
2017-07-24T10:47:02.876Z,30.95
2017-07-24T10:48:04.771Z,30.95
2017-07-24T10:49:06.649Z,30.98
2017-07-24T10:50:08.471Z,31.04
2017-07-24T10:51:10.303Z,31.09
2017-07-24T10:52:12.214Z,31.09
2017-07-24T10:53:14.115Z,31.04
2017-07-24T10:54:16.002Z,31.10
2017-07-24T10:55:30.155Z,31.12
2017-07-24T10:56:32.064Z,31.20
2017-07-24T10:57:33.969Z,31.21
2017-07-24T10:58:35.857Z,31.20
2017-07-24T10:59:37.701Z,31.14
2017-07-24T11:00:39.525Z,31.17
2017-07-24T11:01:41.410Z,31.14
2017-07-24T11:02:43.314Z,31.25
2017-07-24T11:03:45.198Z,31.19
2017-07-24T11:04:59.408Z,31.31
2017-07-24T11:06:01.309Z,31.29
2017-07-24T11:07:03.215Z,31.23
2017-07-24T11:08:05.131Z,31.28
2017-07-24T11:09:06.972Z,31.35
2017-07-24T11:10:08.788Z,31.26
2017-07-24T11:11:10.666Z,31.28
2017-07-24T11:12:12.554Z,31.28
2017-07-24T11:13:14.431Z,31.31
2017-07-24T11:14:28.621Z,31.23
2017-07-24T11:15:30.533Z,31.28
2017-07-24T11:16:32.445Z,31.32
2017-07-24T11:17:34.360Z,31.25
2017-07-24T11:18:36.198Z,31.21
2017-07-24T11:19:38.042Z,31.31
2017-07-24T11:20:39.933Z,31.38
2017-07-24T11:21:42.077Z,31.44
2017-07-24T11:22:44.107Z,31.62
2017-07-24T11:23:58.284Z,31.72
2017-07-24T11:25:00.169Z,31.76
2017-07-24T11:26:02.074Z,31.93
2017-07-24T11:27:03.950Z,31.88
2017-07-24T11:28:05.782Z,32.01
2017-07-24T11:29:07.630Z,32.11
2017-07-24T11:30:09.535Z,32.18
2017-07-24T11:31:11.467Z,32.26
2017-07-24T11:32:13.326Z,32.26
2017-07-24T11:33:27.520Z,32.38
2017-07-24T11:34:29.422Z,32.40
2017-07-24T11:35:31.356Z,32.48
2017-07-24T11:36:33.242Z,32.60
2017-07-24T11:37:35.084Z,32.66
2017-07-24T11:38:36.926Z,32.65
2017-07-24T11:39:38.812Z,32.79
2017-07-24T11:40:40.720Z,32.77
2017-07-24T11:41:42.625Z,32.75
2017-07-24T11:42:56.789Z,32.69
2017-07-24T11:43:58.646Z,32.72
2017-07-24T11:45:00.578Z,32.56
2017-07-24T11:46:02.477Z,32.57
2017-07-24T11:47:04.312Z,32.59
2017-07-24T11:48:06.160Z,32.56
2017-07-24T11:49:08.071Z,32.57
2017-07-24T11:50:09.970Z,32.45
2017-07-24T11:51:11.859Z,32.40
2017-07-24T11:52:26.020Z,32.25
2017-07-24T11:53:27.934Z,32.11
2017-07-24T11:54:29.833Z,32.06
2017-07-24T11:55:31.746Z,32.19
2017-07-24T11:56:33.600Z,32.22
2017-07-24T11:57:35.451Z,32.08
2017-07-24T11:58:37.371Z,32.06
2017-07-24T11:59:39.275Z,32.29
2017-07-24T12:00:41.174Z,32.44
2017-07-24T12:01:55.351Z,32.51
2017-07-24T12:02:57.237Z,32.63
2017-07-24T12:03:59.146Z,32.72
2017-07-24T12:05:01.047Z,32.66
2017-07-24T12:06:02.910Z,32.70
2017-07-24T12:07:04.719Z,32.66
2017-07-24T12:08:06.622Z,32.67
2017-07-24T12:09:08.531Z,32.62
2017-07-24T12:10:10.411Z,32.23
2017-07-24T12:11:24.653Z,31.89
2017-07-24T12:12:26.550Z,31.65
2017-07-24T12:13:28.458Z,31.53
2017-07-24T12:14:30.373Z,31.54
2017-07-24T12:15:32.217Z,31.65
2017-07-24T12:16:34.069Z,31.81
2017-07-24T12:17:35.945Z,31.92
2017-07-24T12:18:37.849Z,32.11
2017-07-24T12:19:39.732Z,32.23
2017-07-24T12:20:53.965Z,32.44
2017-07-24T12:21:55.851Z,32.50
2017-07-24T12:22:57.757Z,32.59
2017-07-24T12:23:59.637Z,32.69
2017-07-24T12:25:01.490Z,32.75
2017-07-24T12:26:03.336Z,32.82
2017-07-24T12:27:05.242Z,32.92
2017-07-24T12:28:07.133Z,32.92
2017-07-24T12:29:09.006Z,32.97
2017-07-24T12:30:23.168Z,33.00
2017-07-24T12:31:25.051Z,33.07
2017-07-24T12:32:26.930Z,33.12
2017-07-24T12:33:28.814Z,33.09
2017-07-24T12:34:30.642Z,33.15
2017-07-24T12:35:32.485Z,33.19
2017-07-24T12:36:34.391Z,33.26
2017-07-24T12:37:36.301Z,33.19
2017-07-24T12:38:38.180Z,33.19
2017-07-24T12:39:52.377Z,33.23
2017-07-24T12:40:54.346Z,33.18
2017-07-24T12:41:56.306Z,33.21
2017-07-24T12:42:58.264Z,33.32
2017-07-24T12:44:00.093Z,33.23
2017-07-24T12:45:01.912Z,33.35
2017-07-24T12:46:03.838Z,33.23
2017-07-24T12:47:05.786Z,33.19
2017-07-24T12:48:07.683Z,33.21
2017-07-24T12:49:21.862Z,33.23
2017-07-24T12:50:23.748Z,33.23
2017-07-24T12:51:25.660Z,33.22
2017-07-24T12:52:27.548Z,33.19
2017-07-24T12:53:29.401Z,33.23
2017-07-24T12:54:31.273Z,33.19
2017-07-24T12:55:33.166Z,33.26
2017-07-24T12:56:35.077Z,33.22
2017-07-24T12:57:37.017Z,33.28
2017-07-24T12:58:51.226Z,33.21
2017-07-24T12:59:53.177Z,33.11
2017-07-24T13:00:55.092Z,33.14
2017-07-24T13:01:56.984Z,33.19
2017-07-24T13:02:58.807Z,33.14
2017-07-24T13:04:00.655Z,33.06
2017-07-24T13:05:02.611Z,33.07
2017-07-24T13:06:04.519Z,33.06
2017-07-24T13:07:06.422Z,32.94
2017-07-24T13:08:20.612Z,32.78
2017-07-24T13:09:22.491Z,32.45
2017-07-24T13:10:24.372Z,32.19
2017-07-24T13:11:26.282Z,32.04
2017-07-24T13:12:28.128Z,31.88
2017-07-24T13:13:29.975Z,31.56
2017-07-24T13:14:31.882Z,31.50
2017-07-24T13:15:33.813Z,31.47
2017-07-24T13:16:35.683Z,31.50
2017-07-24T13:17:49.840Z,31.61
2017-07-24T13:18:51.722Z,31.65
2017-07-24T13:19:53.639Z,31.57
2017-07-24T13:20:55.519Z,31.36
2017-07-24T13:21:57.340Z,31.25
2017-07-24T13:22:59.155Z,31.29
2017-07-24T13:24:01.044Z,31.10
2017-07-24T13:25:02.948Z,31.04
2017-07-24T13:26:04.833Z,31.01
2017-07-24T13:27:18.997Z,31.09
2017-07-24T13:28:20.903Z,31.04
2017-07-24T13:29:22.810Z,31.12
2017-07-24T13:30:24.675Z,31.25
2017-07-24T13:31:26.500Z,31.39
2017-07-24T13:32:28.320Z,31.50
2017-07-24T13:33:30.205Z,31.73
2017-07-24T13:34:32.113Z,31.85